sensor_id;sensor_type;location;lat;lon;timestamp;P1;durP1;ratioP1;P2;durP2;ratioP2
65751;SDS011;52486;51.098;13.770;2022-10-19T00:00:43;3.30;;;2.35;;
65751;SDS011;52486;51.098;13.770;2022-10-19T00:03:09;3.90;;;2.40;;
65751;SDS011;52486;51.098;13.770;2022-10-19T00:05:35;4.72;;;2.40;;
65751;SDS011;52486;51.098;13.770;2022-10-19T00:08:01;3.67;;;2.28;;
65751;SDS011;52486;51.098;13.770;2022-10-19T00:10:27;2.45;;;2.25;;
65751;SDS011;52486;51.098;13.770;2022-10-19T00:12:53;3.63;;;2.65;;
65751;SDS011;52486;51.098;13.770;2022-10-19T00:15:19;3.67;;;2.78;;
65751;SDS011;52486;51.098;13.770;2022-10-19T00:17:45;4.43;;;2.70;;
65751;SDS011;52486;51.098;13.770;2022-10-19T00:20:11;3.97;;;2.60;;
65751;SDS011;52486;51.098;13.770;2022-10-19T00:22:37;2.92;;;2.55;;
65751;SDS011;52486;51.098;13.770;2022-10-19T00:25:03;2.63;;;2.40;;
65751;SDS011;52486;51.098;13.770;2022-10-19T00:27:29;3.08;;;2.30;;
65751;SDS011;52486;51.098;13.770;2022-10-19T00:29:55;3.20;;;2.20;;
65751;SDS011;52486;51.098;13.770;2022-10-19T00:32:21;4.25;;;2.58;;
65751;SDS011;52486;51.098;13.770;2022-10-19T00:34:47;3.08;;;2.45;;
65751;SDS011;52486;51.098;13.770;2022-10-19T00:37:13;4.10;;;2.97;;
65751;SDS011;52486;51.098;13.770;2022-10-19T00:39:39;4.07;;;2.58;;
65751;SDS011;52486;51.098;13.770;2022-10-19T00:42:05;3.28;;;2.50;;
65751;SDS011;52486;51.098;13.770;2022-10-19T00:46:59;4.22;;;2.40;;
65751;SDS011;52486;51.098;13.770;2022-10-19T00:49:27;3.08;;;2.40;;
65751;SDS011;52486;51.098;13.770;2022-10-19T00:52:00;2.97;;;2.05;;
65751;SDS011;52486;51.098;13.770;2022-10-19T00:54:27;3.28;;;2.40;;
65751;SDS011;52486;51.098;13.770;2022-10-19T00:56:54;2.50;;;2.28;;
65751;SDS011;52486;51.098;13.770;2022-10-19T00:59:21;2.60;;;2.40;;
65751;SDS011;52486;51.098;13.770;2022-10-19T01:01:49;2.63;;;2.40;;
65751;SDS011;52486;51.098;13.770;2022-10-19T01:04:15;3.10;;;2.30;;
65751;SDS011;52486;51.098;13.770;2022-10-19T01:06:41;2.63;;;2.42;;
65751;SDS011;52486;51.098;13.770;2022-10-19T01:09:07;2.60;;;2.40;;
65751;SDS011;52486;51.098;13.770;2022-10-19T01:30:03;3.53;;;2.47;;
65751;SDS011;52486;51.098;13.770;2022-10-19T01:32:33;2.90;;;2.60;;
65751;SDS011;52486;51.098;13.770;2022-10-19T01:35:44;5.70;;;2.67;;
65751;SDS011;52486;51.098;13.770;2022-10-19T01:38:04;3.53;;;2.63;;
65751;SDS011;52486;51.098;13.770;2022-10-19T01:40:44;2.97;;;2.60;;
65751;SDS011;52486;51.098;13.770;2022-10-19T01:48:28;6.18;;;2.70;;
65751;SDS011;52486;51.098;13.770;2022-10-19T01:51:05;2.95;;;2.70;;
65751;SDS011;52486;51.098;13.770;2022-10-19T01:53:35;3.72;;;2.60;;
65751;SDS011;52486;51.098;13.770;2022-10-19T01:56:02;8.50;;;3.28;;
65751;SDS011;52486;51.098;13.770;2022-10-19T01:58:30;3.30;;;2.83;;
65751;SDS011;52486;51.098;13.770;2022-10-19T02:00:58;4.85;;;2.83;;
65751;SDS011;52486;51.098;13.770;2022-10-19T02:03:27;3.20;;;2.60;;
65751;SDS011;52486;51.098;13.770;2022-10-19T02:05:53;3.65;;;2.80;;
65751;SDS011;52486;51.098;13.770;2022-10-19T02:08:21;4.13;;;2.90;;
65751;SDS011;52486;51.098;13.770;2022-10-19T02:10:49;3.17;;;2.40;;
65751;SDS011;52486;51.098;13.770;2022-10-19T02:13:15;6.28;;;3.08;;
65751;SDS011;52486;51.098;13.770;2022-10-19T02:15:43;3.38;;;3.00;;
65751;SDS011;52486;51.098;13.770;2022-10-19T02:18:11;3.45;;;2.67;;
65751;SDS011;52486;51.098;13.770;2022-10-19T02:20:38;3.35;;;2.95;;
65751;SDS011;52486;51.098;13.770;2022-10-19T02:23:04;3.75;;;2.92;;
65751;SDS011;52486;51.098;13.770;2022-10-19T02:25:31;3.35;;;2.95;;
65751;SDS011;52486;51.098;13.770;2022-10-19T02:27:57;3.47;;;3.00;;
65751;SDS011;52486;51.098;13.770;2022-10-19T02:30:23;5.40;;;2.90;;
65751;SDS011;52486;51.098;13.770;2022-10-19T02:32:49;5.35;;;3.08;;
65751;SDS011;52486;51.098;13.770;2022-10-19T02:35:15;3.80;;;3.08;;
65751;SDS011;52486;51.098;13.770;2022-10-19T02:37:41;3.58;;;3.15;;
65751;SDS011;52486;51.098;13.770;2022-10-19T02:40:07;3.80;;;2.85;;
65751;SDS011;52486;51.098;13.770;2022-10-19T02:42:45;3.83;;;3.10;;
65751;SDS011;52486;51.098;13.770;2022-10-19T02:45:18;3.50;;;3.03;;
65751;SDS011;52486;51.098;13.770;2022-10-19T02:47:50;4.80;;;3.00;;
65751;SDS011;52486;51.098;13.770;2022-10-19T02:50:17;4.18;;;3.08;;
65751;SDS011;52486;51.098;13.770;2022-10-19T02:52:44;5.47;;;3.00;;
65751;SDS011;52486;51.098;13.770;2022-10-19T02:55:10;3.83;;;3.17;;
65751;SDS011;52486;51.098;13.770;2022-10-19T02:57:36;5.43;;;3.13;;
65751;SDS011;52486;51.098;13.770;2022-10-19T03:00:03;4.50;;;3.30;;
65751;SDS011;52486;51.098;13.770;2022-10-19T03:02:29;4.50;;;2.95;;
65751;SDS011;52486;51.098;13.770;2022-10-19T03:04:55;4.47;;;3.30;;
65751;SDS011;52486;51.098;13.770;2022-10-19T03:07:21;3.92;;;2.70;;
65751;SDS011;52486;51.098;13.770;2022-10-19T03:09:47;4.60;;;3.15;;
65751;SDS011;52486;51.098;13.770;2022-10-19T03:12:14;5.68;;;3.17;;
65751;SDS011;52486;51.098;13.770;2022-10-19T03:14:40;4.93;;;3.40;;
65751;SDS011;52486;51.098;13.770;2022-10-19T03:17:06;4.68;;;3.20;;
65751;SDS011;52486;51.098;13.770;2022-10-19T03:19:33;3.35;;;2.95;;
65751;SDS011;52486;51.098;13.770;2022-10-19T03:21:59;4.32;;;3.30;;
65751;SDS011;52486;51.098;13.770;2022-10-19T03:24:25;4.18;;;3.25;;
65751;SDS011;52486;51.098;13.770;2022-10-19T03:26:51;3.75;;;2.95;;
65751;SDS011;52486;51.098;13.770;2022-10-19T03:29:17;3.22;;;2.88;;
65751;SDS011;52486;51.098;13.770;2022-10-19T03:31:43;3.72;;;3.13;;
65751;SDS011;52486;51.098;13.770;2022-10-19T03:34:09;6.50;;;3.30;;
65751;SDS011;52486;51.098;13.770;2022-10-19T03:36:35;4.32;;;3.17;;
65751;SDS011;52486;51.098;13.770;2022-10-19T03:39:06;5.78;;;3.30;;
65751;SDS011;52486;51.098;13.770;2022-10-19T03:41:33;4.35;;;3.50;;
65751;SDS011;52486;51.098;13.770;2022-10-19T03:44:00;4.50;;;3.30;;
65751;SDS011;52486;51.098;13.770;2022-10-19T03:46:26;4.18;;;3.50;;
65751;SDS011;52486;51.098;13.770;2022-10-19T03:48:52;3.60;;;3.10;;
65751;SDS011;52486;51.098;13.770;2022-10-19T03:51:19;4.60;;;3.38;;
65751;SDS011;52486;51.098;13.770;2022-10-19T03:53:45;4.70;;;3.60;;
65751;SDS011;52486;51.098;13.770;2022-10-19T03:56:15;5.00;;;3.55;;
65751;SDS011;52486;51.098;13.770;2022-10-19T04:01:09;7.18;;;4.18;;
65751;SDS011;52486;51.098;13.770;2022-10-19T04:03:36;5.93;;;3.50;;
65751;SDS011;52486;51.098;13.770;2022-10-19T04:06:02;5.35;;;3.70;;
65751;SDS011;52486;51.098;13.770;2022-10-19T04:08:29;5.78;;;3.50;;
65751;SDS011;52486;51.098;13.770;2022-10-19T04:11:05;5.93;;;3.65;;
65751;SDS011;52486;51.098;13.770;2022-10-19T04:13:32;3.92;;;3.17;;
65751;SDS011;52486;51.098;13.770;2022-10-19T04:15:58;4.78;;;3.60;;
65751;SDS011;52486;51.098;13.770;2022-10-19T04:18:24;5.82;;;3.80;;
65751;SDS011;52486;51.098;13.770;2022-10-19T04:20:54;3.78;;;3.35;;
65751;SDS011;52486;51.098;13.770;2022-10-19T04:23:20;4.78;;;3.22;;
65751;SDS011;52486;51.098;13.770;2022-10-19T04:25:46;4.72;;;3.22;;
65751;SDS011;52486;51.098;13.770;2022-10-19T04:28:12;4.25;;;3.28;;
65751;SDS011;52486;51.098;13.770;2022-10-19T04:30:38;4.35;;;3.30;;
65751;SDS011;52486;51.098;13.770;2022-10-19T04:33:04;4.43;;;3.30;;
65751;SDS011;52486;51.098;13.770;2022-10-19T04:35:30;5.28;;;3.60;;
65751;SDS011;52486;51.098;13.770;2022-10-19T04:37:57;4.75;;;3.60;;
65751;SDS011;52486;51.098;13.770;2022-10-19T04:40:23;5.22;;;3.47;;
65751;SDS011;52486;51.098;13.770;2022-10-19T04:42:49;4.13;;;3.60;;
65751;SDS011;52486;51.098;13.770;2022-10-19T04:45:15;4.50;;;3.28;;
65751;SDS011;52486;51.098;13.770;2022-10-19T04:47:40;6.40;;;3.67;;
65751;SDS011;52486;51.098;13.770;2022-10-19T04:50:06;4.03;;;3.40;;
65751;SDS011;52486;51.098;13.770;2022-10-19T04:52:33;9.00;;;3.80;;
65751;SDS011;52486;51.098;13.770;2022-10-19T04:54:59;5.65;;;3.25;;
65751;SDS011;52486;51.098;13.770;2022-10-19T04:57:25;4.07;;;3.13;;
65751;SDS011;52486;51.098;13.770;2022-10-19T04:59:51;3.80;;;3.20;;
65751;SDS011;52486;51.098;13.770;2022-10-19T05:05:05;3.88;;;3.17;;
65751;SDS011;52486;51.098;13.770;2022-10-19T05:07:31;4.88;;;3.22;;
65751;SDS011;52486;51.098;13.770;2022-10-19T05:09:57;7.70;;;3.67;;
65751;SDS011;52486;51.098;13.770;2022-10-19T05:12:23;4.32;;;3.10;;
65751;SDS011;52486;51.098;13.770;2022-10-19T05:14:49;5.78;;;3.00;;
65751;SDS011;52486;51.098;13.770;2022-10-19T05:17:15;8.60;;;3.20;;
65751;SDS011;52486;51.098;13.770;2022-10-19T05:19:41;6.68;;;3.00;;
65751;SDS011;52486;51.098;13.770;2022-10-19T05:22:07;3.40;;;2.72;;
65751;SDS011;52486;51.098;13.770;2022-10-19T05:24:33;4.57;;;3.35;;
65751;SDS011;52486;51.098;13.770;2022-10-19T05:26:59;5.93;;;3.10;;
65751;SDS011;52486;51.098;13.770;2022-10-19T05:29:25;4.25;;;2.95;;
65751;SDS011;52486;51.098;13.770;2022-10-19T05:31:52;7.60;;;2.60;;
65751;SDS011;52486;51.098;13.770;2022-10-19T05:34:18;4.10;;;3.03;;
65751;SDS011;52486;51.098;13.770;2022-10-19T05:36:45;3.55;;;2.90;;
65751;SDS011;52486;51.098;13.770;2022-10-19T05:39:13;3.55;;;2.70;;
65751;SDS011;52486;51.098;13.770;2022-10-19T05:41:41;5.38;;;3.03;;
65751;SDS011;52486;51.098;13.770;2022-10-19T05:44:09;3.80;;;2.70;;
65751;SDS011;52486;51.098;13.770;2022-10-19T05:46:36;5.30;;;2.72;;
65751;SDS011;52486;51.098;13.770;2022-10-19T05:49:02;4.10;;;2.42;;
65751;SDS011;52486;51.098;13.770;2022-10-19T05:51:28;5.65;;;2.58;;
65751;SDS011;52486;51.098;13.770;2022-10-19T05:53:54;9.35;;;3.13;;
65751;SDS011;52486;51.098;13.770;2022-10-19T05:56:25;9.20;;;2.55;;
65751;SDS011;52486;51.098;13.770;2022-10-19T05:58:51;6.93;;;2.15;;
65751;SDS011;52486;51.098;13.770;2022-10-19T06:01:18;6.60;;;2.28;;
65751;SDS011;52486;51.098;13.770;2022-10-19T06:03:44;7.72;;;2.30;;
65751;SDS011;52486;51.098;13.770;2022-10-19T06:06:10;7.05;;;2.30;;
65751;SDS011;52486;51.098;13.770;2022-10-19T06:08:37;7.00;;;2.42;;
65751;SDS011;52486;51.098;13.770;2022-10-19T06:11:04;7.25;;;2.65;;
65751;SDS011;52486;51.098;13.770;2022-10-19T06:13:30;4.32;;;2.00;;
65751;SDS011;52486;51.098;13.770;2022-10-19T06:15:56;3.85;;;2.00;;
65751;SDS011;52486;51.098;13.770;2022-10-19T06:18:22;6.25;;;2.15;;
65751;SDS011;52486;51.098;13.770;2022-10-19T06:20:49;9.68;;;2.63;;
65751;SDS011;52486;51.098;13.770;2022-10-19T06:23:15;5.13;;;2.38;;
65751;SDS011;52486;51.098;13.770;2022-10-19T06:25:41;4.78;;;2.10;;
65751;SDS011;52486;51.098;13.770;2022-10-19T06:28:07;5.82;;;1.90;;
65751;SDS011;52486;51.098;13.770;2022-10-19T06:30:37;7.03;;;1.75;;
65751;SDS011;52486;51.098;13.770;2022-10-19T06:33:03;6.13;;;2.28;;
65751;SDS011;52486;51.098;13.770;2022-10-19T06:35:29;11.50;;;2.13;;
65751;SDS011;52486;51.098;13.770;2022-10-19T06:37:55;7.97;;;2.20;;
65751;SDS011;52486;51.098;13.770;2022-10-19T06:40:21;7.22;;;2.40;;
65751;SDS011;52486;51.098;13.770;2022-10-19T06:42:47;3.50;;;1.90;;
65751;SDS011;52486;51.098;13.770;2022-10-19T06:45:13;2.92;;;1.90;;
65751;SDS011;52486;51.098;13.770;2022-10-19T06:47:39;6.95;;;1.80;;
65751;SDS011;52486;51.098;13.770;2022-10-19T06:50:05;6.90;;;1.80;;
65751;SDS011;52486;51.098;13.770;2022-10-19T06:52:32;7.90;;;1.95;;
65751;SDS011;52486;51.098;13.770;2022-10-19T06:54:59;7.22;;;1.92;;
65751;SDS011;52486;51.098;13.770;2022-10-19T06:57:25;7.18;;;2.00;;
65751;SDS011;52486;51.098;13.770;2022-10-19T06:59:52;5.32;;;1.95;;
65751;SDS011;52486;51.098;13.770;2022-10-19T07:02:18;6.95;;;2.15;;
65751;SDS011;52486;51.098;13.770;2022-10-19T07:04:44;8.15;;;1.67;;
65751;SDS011;52486;51.098;13.770;2022-10-19T07:07:10;11.43;;;2.47;;
65751;SDS011;52486;51.098;13.770;2022-10-19T07:09:36;13.73;;;2.65;;
65751;SDS011;52486;51.098;13.770;2022-10-19T07:12:02;4.72;;;2.20;;
65751;SDS011;52486;51.098;13.770;2022-10-19T07:14:28;6.50;;;1.70;;
65751;SDS011;52486;51.098;13.770;2022-10-19T07:16:55;7.40;;;2.45;;
65751;SDS011;52486;51.098;13.770;2022-10-19T07:19:21;5.80;;;1.92;;
65751;SDS011;52486;51.098;13.770;2022-10-19T07:21:50;10.65;;;2.28;;
65751;SDS011;52486;51.098;13.770;2022-10-19T07:24:17;7.53;;;1.98;;
65751;SDS011;52486;51.098;13.770;2022-10-19T07:26:43;8.68;;;2.40;;
65751;SDS011;52486;51.098;13.770;2022-10-19T07:29:09;9.48;;;2.42;;
65751;SDS011;52486;51.098;13.770;2022-10-19T07:31:35;5.68;;;2.13;;
65751;SDS011;52486;51.098;13.770;2022-10-19T07:34:02;8.68;;;2.20;;
65751;SDS011;52486;51.098;13.770;2022-10-19T07:36:29;13.07;;;2.58;;
65751;SDS011;52486;51.098;13.770;2022-10-19T07:38:55;4.45;;;1.83;;
65751;SDS011;52486;51.098;13.770;2022-10-19T07:41:23;6.45;;;2.00;;
65751;SDS011;52486;51.098;13.770;2022-10-19T07:43:50;6.88;;;2.22;;
65751;SDS011;52486;51.098;13.770;2022-10-19T07:46:17;8.50;;;1.85;;
65751;SDS011;52486;51.098;13.770;2022-10-19T07:48:43;9.27;;;2.08;;
65751;SDS011;52486;51.098;13.770;2022-10-19T07:51:10;11.50;;;2.15;;
65751;SDS011;52486;51.098;13.770;2022-10-19T07:53:36;3.97;;;1.88;;
65751;SDS011;52486;51.098;13.770;2022-10-19T07:56:03;5.25;;;1.88;;
65751;SDS011;52486;51.098;13.770;2022-10-19T07:58:29;6.50;;;1.90;;
65751;SDS011;52486;51.098;13.770;2022-10-19T08:00:59;7.50;;;1.92;;
65751;SDS011;52486;51.098;13.770;2022-10-19T08:03:25;14.93;;;2.33;;
65751;SDS011;52486;51.098;13.770;2022-10-19T08:05:51;4.28;;;1.98;;
65751;SDS011;52486;51.098;13.770;2022-10-19T08:08:17;3.30;;;2.20;;
65751;SDS011;52486;51.098;13.770;2022-10-19T08:10:42;8.10;;;2.97;;
65751;SDS011;52486;51.098;13.770;2022-10-19T08:13:08;5.63;;;2.13;;
65751;SDS011;52486;51.098;13.770;2022-10-19T08:15:34;9.77;;;1.75;;
65751;SDS011;52486;51.098;13.770;2022-10-19T08:17:59;4.93;;;1.90;;
65751;SDS011;52486;51.098;13.770;2022-10-19T08:20:25;10.70;;;3.28;;
65751;SDS011;52486;51.098;13.770;2022-10-19T08:22:50;5.55;;;1.88;;
65751;SDS011;52486;51.098;13.770;2022-10-19T08:25:16;4.93;;;2.08;;
65751;SDS011;52486;51.098;13.770;2022-10-19T08:27:42;5.35;;;1.95;;
65751;SDS011;52486;51.098;13.770;2022-10-19T08:30:09;7.00;;;2.08;;
65751;SDS011;52486;51.098;13.770;2022-10-19T08:32:35;3.13;;;1.92;;
65751;SDS011;52486;51.098;13.770;2022-10-19T08:35:01;4.53;;;2.40;;
65751;SDS011;52486;51.098;13.770;2022-10-19T08:37:27;7.18;;;1.90;;
65751;SDS011;52486;51.098;13.770;2022-10-19T08:39:53;3.35;;;1.73;;
65751;SDS011;52486;51.098;13.770;2022-10-19T08:42:19;4.47;;;2.58;;
65751;SDS011;52486;51.098;13.770;2022-10-19T08:44:58;5.32;;;1.90;;
65751;SDS011;52486;51.098;13.770;2022-10-19T08:47:39;5.55;;;1.75;;
65751;SDS011;52486;51.098;13.770;2022-10-19T08:50:26;5.95;;;1.70;;
65751;SDS011;52486;51.098;13.770;2022-10-19T08:53:01;2.85;;;1.52;;
65751;SDS011;52486;51.098;13.770;2022-10-19T09:03:40;2.53;;;1.20;;
65751;SDS011;52486;51.098;13.770;2022-10-19T09:06:28;4.00;;;1.52;;
65751;SDS011;52486;51.098;13.770;2022-10-19T09:09:17;4.78;;;1.70;;
65751;SDS011;52486;51.098;13.770;2022-10-19T09:11:49;3.05;;;1.80;;
65751;SDS011;52486;51.098;13.770;2022-10-19T09:14:21;5.30;;;1.50;;
65751;SDS011;52486;51.098;13.770;2022-10-19T09:16:53;3.90;;;1.52;;
65751;SDS011;52486;51.098;13.770;2022-10-19T09:19:25;4.65;;;1.60;;
65751;SDS011;52486;51.098;13.770;2022-10-19T09:27:46;2.58;;;1.55;;
65751;SDS011;52486;51.098;13.770;2022-10-19T09:30:17;4.50;;;1.48;;
65751;SDS011;52486;51.098;13.770;2022-10-19T09:32:45;6.30;;;1.42;;
65751;SDS011;52486;51.098;13.770;2022-10-19T09:35:30;3.53;;;1.45;;
65751;SDS011;52486;51.098;13.770;2022-10-19T09:37:59;3.05;;;1.30;;
65751;SDS011;52486;51.098;13.770;2022-10-19T09:40:27;4.93;;;1.60;;
65751;SDS011;52486;51.098;13.770;2022-10-19T09:42:54;6.75;;;1.70;;
65751;SDS011;52486;51.098;13.770;2022-10-19T09:48:15;4.88;;;1.63;;
65751;SDS011;52486;51.098;13.770;2022-10-19T09:50:43;4.55;;;1.40;;
65751;SDS011;52486;51.098;13.770;2022-10-19T09:53:14;3.30;;;1.52;;
65751;SDS011;52486;51.098;13.770;2022-10-19T09:55:45;4.40;;;1.38;;
65751;SDS011;52486;51.098;13.770;2022-10-19T09:58:16;3.42;;;1.48;;
65751;SDS011;52486;51.098;13.770;2022-10-19T10:00:44;2.30;;;1.45;;
65751;SDS011;52486;51.098;13.770;2022-10-19T10:06:05;1.98;;;1.25;;
65751;SDS011;52486;51.098;13.770;2022-10-19T10:08:35;2.53;;;1.30;;
65751;SDS011;52486;51.098;13.770;2022-10-19T10:13:46;2.47;;;1.35;;
65751;SDS011;52486;51.098;13.770;2022-10-19T10:16:14;2.70;;;1.30;;
65751;SDS011;52486;51.098;13.770;2022-10-19T10:18:49;3.15;;;1.25;;
65751;SDS011;52486;51.098;13.770;2022-10-19T10:21:23;3.85;;;1.38;;
65751;SDS011;52486;51.098;13.770;2022-10-19T10:26:41;4.00;;;1.45;;
65751;SDS011;52486;51.098;13.770;2022-10-19T10:29:22;3.65;;;1.35;;
65751;SDS011;52486;51.098;13.770;2022-10-19T10:34:36;2.70;;;1.20;;
65751;SDS011;52486;51.098;13.770;2022-10-19T10:37:24;2.72;;;0.98;;
65751;SDS011;52486;51.098;13.770;2022-10-19T10:39:55;1.60;;;1.13;;
65751;SDS011;52486;51.098;13.770;2022-10-19T10:42:27;2.08;;;1.10;;
65751;SDS011;52486;51.098;13.770;2022-10-19T10:45:03;3.88;;;1.90;;
65751;SDS011;52486;51.098;13.770;2022-10-19T10:47:39;1.83;;;1.10;;
65751;SDS011;52486;51.098;13.770;2022-10-19T10:50:15;2.00;;;1.15;;
65751;SDS011;52486;51.098;13.770;2022-10-19T10:55:24;3.75;;;1.30;;
65751;SDS011;52486;51.098;13.770;2022-10-19T10:57:50;2.35;;;1.15;;
65751;SDS011;52486;51.098;13.770;2022-10-19T11:00:30;3.20;;;1.27;;
65751;SDS011;52486;51.098;13.770;2022-10-19T11:03:15;4.18;;;1.10;;
65751;SDS011;52486;51.098;13.770;2022-10-19T11:05:53;6.00;;;1.20;;
65751;SDS011;52486;51.098;13.770;2022-10-19T11:08:27;1.65;;;1.08;;
65751;SDS011;52486;51.098;13.770;2022-10-19T11:16:44;6.25;;;2.75;;
65751;SDS011;52486;51.098;13.770;2022-10-19T11:21:52;10.50;;;3.08;;
65751;SDS011;52486;51.098;13.770;2022-10-19T11:30:11;12.57;;;4.05;;
65751;SDS011;52486;51.098;13.770;2022-10-19T11:37:58;18.13;;;4.80;;
65751;SDS011;52486;51.098;13.770;2022-10-19T11:43:02;20.27;;;5.50;;
65751;SDS011;52486;51.098;13.770;2022-10-19T11:51:11;15.85;;;3.60;;
65751;SDS011;52486;51.098;13.770;2022-10-19T11:53:56;9.77;;;3.27;;
65751;SDS011;52486;51.098;13.770;2022-10-19T12:02:48;6.45;;;3.08;;
65751;SDS011;52486;51.098;13.770;2022-10-19T12:05:23;9.55;;;3.50;;
65751;SDS011;52486;51.098;13.770;2022-10-19T12:14:12;9.13;;;2.50;;
65751;SDS011;52486;51.098;13.770;2022-10-19T12:16:43;5.18;;;2.88;;
65751;SDS011;52486;51.098;13.770;2022-10-19T12:19:16;5.03;;;2.63;;
65751;SDS011;52486;51.098;13.770;2022-10-19T12:21:45;11.60;;;3.33;;
65751;SDS011;52486;51.098;13.770;2022-10-19T12:24:16;7.10;;;2.50;;
65751;SDS011;52486;51.098;13.770;2022-10-19T12:26:48;6.35;;;2.55;;
65751;SDS011;52486;51.098;13.770;2022-10-19T12:29:16;7.90;;;2.17;;
65751;SDS011;52486;51.098;13.770;2022-10-19T12:31:44;4.65;;;2.65;;
65751;SDS011;52486;51.098;13.770;2022-10-19T12:34:19;6.22;;;3.58;;
65751;SDS011;52486;51.098;13.770;2022-10-19T12:37:02;11.35;;;3.17;;
65751;SDS011;52486;51.098;13.770;2022-10-19T12:39:38;6.30;;;2.97;;
65751;SDS011;52486;51.098;13.770;2022-10-19T12:42:09;5.30;;;2.90;;
65751;SDS011;52486;51.098;13.770;2022-10-19T12:45:16;3.77;;;2.17;;
65751;SDS011;52486;51.098;13.770;2022-10-19T12:55:47;5.55;;;3.00;;
65751;SDS011;52486;51.098;13.770;2022-10-19T12:58:27;9.35;;;3.15;;
65751;SDS011;52486;51.098;13.770;2022-10-19T13:01:16;5.30;;;2.45;;
65751;SDS011;52486;51.098;13.770;2022-10-19T13:03:42;6.60;;;2.92;;
65751;SDS011;52486;51.098;13.770;2022-10-19T13:06:32;10.95;;;2.67;;
65751;SDS011;52486;51.098;13.770;2022-10-19T13:08:59;9.45;;;2.80;;
65751;SDS011;52486;51.098;13.770;2022-10-19T13:11:28;12.35;;;3.28;;
65751;SDS011;52486;51.098;13.770;2022-10-19T13:16:54;7.90;;;3.50;;
65751;SDS011;52486;51.098;13.770;2022-10-19T13:19:22;7.15;;;2.83;;
65751;SDS011;52486;51.098;13.770;2022-10-19T13:21:49;11.77;;;3.25;;
65751;SDS011;52486;51.098;13.770;2022-10-19T13:24:28;6.07;;;2.90;;
65751;SDS011;52486;51.098;13.770;2022-10-19T13:38:10;9.98;;;3.03;;
65751;SDS011;52486;51.098;13.770;2022-10-19T13:46:04;5.45;;;3.75;;
65751;SDS011;52486;51.098;13.770;2022-10-19T13:51:05;8.00;;;4.05;;
65751;SDS011;52486;51.098;13.770;2022-10-19T13:53:48;8.70;;;3.88;;
65751;SDS011;52486;51.098;13.770;2022-10-19T13:56:24;6.00;;;4.13;;
65751;SDS011;52486;51.098;13.770;2022-10-19T14:04:28;8.27;;;3.95;;
65751;SDS011;52486;51.098;13.770;2022-10-19T14:07:15;9.13;;;4.45;;
65751;SDS011;52486;51.098;13.770;2022-10-19T14:12:28;7.68;;;3.78;;
65751;SDS011;52486;51.098;13.770;2022-10-19T14:14:55;11.45;;;4.60;;
65751;SDS011;52486;51.098;13.770;2022-10-19T14:17:22;5.47;;;3.83;;
65751;SDS011;52486;51.098;13.770;2022-10-19T14:19:57;11.23;;;4.43;;
65751;SDS011;52486;51.098;13.770;2022-10-19T14:25:26;9.25;;;3.95;;
65751;SDS011;52486;51.098;13.770;2022-10-19T14:27:57;6.13;;;3.85;;
65751;SDS011;52486;51.098;13.770;2022-10-19T14:30:29;9.85;;;4.20;;
65751;SDS011;52486;51.098;13.770;2022-10-19T14:32:56;6.20;;;3.67;;
65751;SDS011;52486;51.098;13.770;2022-10-19T14:35:26;7.50;;;4.28;;
65751;SDS011;52486;51.098;13.770;2022-10-19T14:40:27;6.65;;;3.72;;
65751;SDS011;52486;51.098;13.770;2022-10-19T14:42:58;6.63;;;3.90;;
65751;SDS011;52486;51.098;13.770;2022-10-19T14:45:29;12.90;;;3.85;;
65751;SDS011;52486;51.098;13.770;2022-10-19T14:47:59;5.40;;;3.42;;
65751;SDS011;52486;51.098;13.770;2022-10-19T14:50:49;6.65;;;3.60;;
65751;SDS011;52486;51.098;13.770;2022-10-19T14:55:46;8.63;;;3.97;;
65751;SDS011;52486;51.098;13.770;2022-10-19T14:58:14;6.93;;;3.38;;
65751;SDS011;52486;51.098;13.770;2022-10-19T15:00:43;6.10;;;3.70;;
65751;SDS011;52486;51.098;13.770;2022-10-19T15:03:11;6.22;;;3.15;;
65751;SDS011;52486;51.098;13.770;2022-10-19T15:05:46;4.75;;;2.50;;
65751;SDS011;52486;51.098;13.770;2022-10-19T15:08:21;5.43;;;2.55;;
65751;SDS011;52486;51.098;13.770;2022-10-19T15:10:54;6.45;;;3.13;;
65751;SDS011;52486;51.098;13.770;2022-10-19T15:15:53;5.03;;;3.13;;
65751;SDS011;52486;51.098;13.770;2022-10-19T15:18:23;5.25;;;3.40;;
65751;SDS011;52486;51.098;13.770;2022-10-19T15:21:00;5.35;;;3.00;;
65751;SDS011;52486;51.098;13.770;2022-10-19T15:28:50;6.32;;;3.00;;
65751;SDS011;52486;51.098;13.770;2022-10-19T15:31:23;6.45;;;3.30;;
65751;SDS011;52486;51.098;13.770;2022-10-19T15:33:52;6.22;;;3.20;;
65751;SDS011;52486;51.098;13.770;2022-10-19T15:36:21;6.80;;;3.35;;
65751;SDS011;52486;51.098;13.770;2022-10-19T15:38:48;4.78;;;2.97;;
65751;SDS011;52486;51.098;13.770;2022-10-19T15:41:32;8.25;;;3.40;;
65751;SDS011;52486;51.098;13.770;2022-10-19T15:43:59;6.63;;;3.10;;
65751;SDS011;52486;51.098;13.770;2022-10-19T15:46:35;5.43;;;3.22;;
65751;SDS011;52486;51.098;13.770;2022-10-19T15:52:24;5.47;;;3.00;;
65751;SDS011;52486;51.098;13.770;2022-10-19T15:54:55;6.18;;;3.10;;
65751;SDS011;52486;51.098;13.770;2022-10-19T15:57:23;5.85;;;3.30;;
65751;SDS011;52486;51.098;13.770;2022-10-19T15:59:51;4.80;;;3.17;;
65751;SDS011;52486;51.098;13.770;2022-10-19T16:02:19;5.60;;;3.25;;
65751;SDS011;52486;51.098;13.770;2022-10-19T16:04:45;5.20;;;3.00;;
65751;SDS011;52486;51.098;13.770;2022-10-19T16:07:15;5.57;;;3.33;;
65751;SDS011;52486;51.098;13.770;2022-10-19T16:09:48;4.32;;;3.20;;
65751;SDS011;52486;51.098;13.770;2022-10-19T16:12:13;6.40;;;3.13;;
65751;SDS011;52486;51.098;13.770;2022-10-19T16:14:39;6.07;;;3.03;;
65751;SDS011;52486;51.098;13.770;2022-10-19T16:17:04;6.32;;;2.92;;
65751;SDS011;52486;51.098;13.770;2022-10-19T16:19:30;4.53;;;2.78;;
65751;SDS011;52486;51.098;13.770;2022-10-19T16:21:55;5.35;;;3.30;;
65751;SDS011;52486;51.098;13.770;2022-10-19T16:24:21;5.18;;;3.08;;
65751;SDS011;52486;51.098;13.770;2022-10-19T16:26:46;7.00;;;2.97;;
65751;SDS011;52486;51.098;13.770;2022-10-19T16:29:12;4.55;;;3.10;;
65751;SDS011;52486;51.098;13.770;2022-10-19T16:31:37;6.50;;;3.15;;
65751;SDS011;52486;51.098;13.770;2022-10-19T16:34:03;5.38;;;2.90;;
65751;SDS011;52486;51.098;13.770;2022-10-19T16:36:28;5.40;;;3.13;;
65751;SDS011;52486;51.098;13.770;2022-10-19T16:38:54;6.82;;;2.90;;
65751;SDS011;52486;51.098;13.770;2022-10-19T16:41:20;7.40;;;2.90;;
65751;SDS011;52486;51.098;13.770;2022-10-19T16:43:46;6.53;;;2.90;;
65751;SDS011;52486;51.098;13.770;2022-10-19T16:46:12;5.03;;;2.72;;
65751;SDS011;52486;51.098;13.770;2022-10-19T16:48:38;4.60;;;2.92;;
65751;SDS011;52486;51.098;13.770;2022-10-19T16:53:29;5.55;;;2.90;;
65751;SDS011;52486;51.098;13.770;2022-10-19T16:56:00;5.00;;;2.80;;
65751;SDS011;52486;51.098;13.770;2022-10-19T16:58:28;5.47;;;3.03;;
65751;SDS011;52486;51.098;13.770;2022-10-19T17:00:54;5.93;;;2.95;;
65751;SDS011;52486;51.098;13.770;2022-10-19T17:03:20;4.13;;;2.92;;
65751;SDS011;52486;51.098;13.770;2022-10-19T17:05:46;5.40;;;2.88;;
65751;SDS011;52486;51.098;13.770;2022-10-19T17:08:12;5.00;;;2.72;;
65751;SDS011;52486;51.098;13.770;2022-10-19T17:10:37;5.40;;;3.05;;
65751;SDS011;52486;51.098;13.770;2022-10-19T17:13:03;3.67;;;2.50;;
65751;SDS011;52486;51.098;13.770;2022-10-19T17:15:40;4.60;;;2.67;;
65751;SDS011;52486;51.098;13.770;2022-10-19T17:18:06;6.03;;;2.83;;
65751;SDS011;52486;51.098;13.770;2022-10-19T17:20:32;4.78;;;2.83;;
65751;SDS011;52486;51.098;13.770;2022-10-19T17:22:57;5.22;;;2.78;;
65751;SDS011;52486;51.098;13.770;2022-10-19T17:25:23;5.03;;;2.80;;